Create Tblcommutelog Verified Points Advance Search
| # | Trip ID | Id Commuter | Trip Date | Trip Num | Current Lat | Current Lng | Delta Distance | Current Time | Activity | Activity Confidence | Current Speed | |
|---|---|---|---|---|---|---|---|---|---|---|---|---|
| 70281 | 250826_696035_16551372_1755 | 696035 | (not set) | (not set) | 39.117506812568 | -76.870203937719 | 24.8616 | 2025-08-26 18:50:21 | in_vehicle | 100 | 13.227891673447 | |
| 70282 | 250826_759494_16513758_1827 | 759494 | (not set) | (not set) | 38.925641602873 | -77.032504873422 | 1.652 | 2025-08-26 18:51:03 | still | 33 | 1.6406340804849 | |
| 70283 | 250826_780635_16648311_1802 | 780635 | (not set) | (not set) | 38.9989371 | -77.0242931 | 8.9655 | 2025-08-26 18:50:21 | in_vehicle | 100 | 5.6058723077061 | |
| 70284 | 250826_759494_16513758_1827 | 759494 | (not set) | (not set) | 38.926548780597 | -77.032345574016 | 1.7152 | 2025-08-26 18:51:41 | still | 33 | 0.81808184394754 | |
| 70285 | 250826_788158_16656724_1751 | 788158 | (not set) | (not set) | 39.95575132229 | -75.181564344526 | 90.6846 | 2025-08-26 18:52:05 | on_foot | 100 | 0.43362808121809 | |
| 70286 | 250826_787384_16655865_1817 | 787384 | (not set) | (not set) | 39.11658721067 | -77.161890305464 | 16.6329 | 2025-08-26 18:52:55 | in_vehicle | 100 | 0 | |
| 70287 | 250826_696035_16551372_1755 | 696035 | (not set) | (not set) | 39.15438282115 | -76.835699439784 | 28.0684 | 2025-08-26 18:53:23 | in_vehicle | 100 | 12.990960866183 | |
| 70288 | 250826_787384_16655865_1817 | 787384 | (not set) | (not set) | 39.119667456136 | -77.164512263179 | 16.8883 | 2025-08-26 18:54:03 | in_vehicle | 100 | 1.9982654876751 | |
| 70289 | 250826_788422_16657041_1814 | 788422 | (not set) | (not set) | 38.911422790759 | -76.9989298772 | 38.38 | 2025-08-26 18:54:49 | in_vehicle | 100 | 3.4913766126941 | |
| 70290 | 250826_788251_16656832_1855 | 788251 | (not set) | (not set) | 38.985953206426 | -76.934544747574 | 0 | 2025-08-26 18:55:37 | unknown | 100 | -0.44703925898772 | |
| 70291 | 250826_787965_16656501_1616 | 787965 | (not set) | (not set) | 39.1008477 | -77.15447 | 13.5329 | 2025-08-26 17:08:46 | still | 100 | 13.719634858333 | |
| 70292 | 250826_787965_16656501_1616 | 787965 | (not set) | (not set) | 39.1306219 | -77.2052345 | 19.16 | 2025-08-26 17:26:04 | still | 100 | 8.6055057355137 | |
| 70293 | 250826_787965_16656501_1616 | 787965 | (not set) | (not set) | 38.938063 | -77.086125 | 0.6237 | 2025-08-26 16:34:15 | still | 100 | -0.44703925898772 | |
| 70294 | 250826_787965_16656501_1616 | 787965 | (not set) | (not set) | 39.1478367 | -77.2342442 | 21.2555 | 2025-08-26 17:34:45 | still | 100 | 6.2183160925192 | |
| 70295 | 250826_781025_16648699_1824 | 781025 | (not set) | (not set) | 38.922140944411 | -77.079724724428 | 3.3379 | 2025-08-26 18:57:05 | on_foot | 100 | 0.11175981474693 | |
| 70296 | 250826_788158_16656724_1751 | 788158 | (not set) | (not set) | 39.946705750823 | -75.174241013934 | 91.6806 | 2025-08-26 18:58:30 | on_bicycle | 100 | 2.4542455318426 | |
| 70297 | 250826_765311_16652720_1707 | 765311 | (not set) | (not set) | 38.898519128956 | -77.006150320903 | 42.2893 | 2025-08-26 18:59:39 | on_foot | 100 | -0.44703925898772 | |
| 70298 | 250826_686385_16539846_1901 | 686385 | (not set) | (not set) | 38.800964363115 | -77.071283599264 | 0 | 2025-08-26 19:01:46 | on_foot | 100 | 0 | |
| 70299 | 250826_765311_16652720_1707 | 765311 | (not set) | (not set) | 38.897472896219 | -77.006317976109 | 42.3664 | 2025-08-26 19:04:03 | on_foot | 100 | -0.44703925898772 | |
| 70300 | 250826_788251_16656832_1855 | 788251 | (not set) | (not set) | 38.978230785803 | -76.928150479044 | 1.2877 | 2025-08-26 19:05:49 | on_foot | 100 | -0.44703925898772 |